THY5CJ LTFM-LTAI
Flight info
| Callsign | THY5CJ |
|---|---|
| Flight time | 1h 6m |
| Altitude | 37000 |
| Route | RATVU UT35 BABSA |
| Aircraft | B738/M-SDE2E3FGHIRWXY/LB1 |
Departure
| Time | 2026-05-06 09:39 |
|---|---|
| Airport | İstanbul Airport (LTFM) |
Arrival
| Time | 2026-05-06 10:45 |
|---|---|
| Airport | Antalya International Airport (LTAI) |
| Time | Latitude | Longitude | Altitude | Speed | Heading |
|---|---|---|---|---|---|
| 2026-05-06 09:11 | 41.26357 | 28.73881 | 329 ft | 0 kts | 198° |
| 2026-05-06 09:26 | 41.26364 | 28.73884 | 333 ft | 2 kts | 198° |
| 2026-05-06 09:26 | 41.26383 | 28.73892 | 328 ft | 3 kts | 198° |
| 2026-05-06 09:26 | 41.26402 | 28.73901 | 328 ft | 3 kts | 198° |
| 2026-05-06 09:26 | 41.26421 | 28.73908 | 329 ft | 3 kts | 191° |
| 2026-05-06 09:27 | 41.26441 | 28.73912 | 328 ft | 3 kts | 184° |
| 2026-05-06 09:27 | 41.26461 | 28.73913 | 332 ft | 3 kts | 173° |
| 2026-05-06 09:27 | 41.26478 | 28.73909 | 328 ft | 1 kts | 162° |
| 2026-05-06 09:27 | 41.26484 | 28.73906 | 329 ft | 0 kts | 162° |
| 2026-05-06 09:30 | 41.26477 | 28.73909 | 328 ft | 3 kts | 162° |
| 2026-05-06 09:30 | 41.26446 | 28.73923 | 330 ft | 7 kts | 159° |
| 2026-05-06 09:31 | 41.26411 | 28.73976 | 331 ft | 9 kts | 95° |
| 2026-05-06 09:31 | 41.26452 | 28.74025 | 333 ft | 9 kts | 9° |
| 2026-05-06 09:31 | 41.26511 | 28.74026 | 331 ft | 8 kts | 360° |
| 2026-05-06 09:31 | 41.26571 | 28.74025 | 329 ft | 9 kts | 359° |
| 2026-05-06 09:32 | 41.26646 | 28.74024 | 330 ft | 13 kts | 359° |
| 2026-05-06 09:32 | 41.26753 | 28.74022 | 331 ft | 17 kts | 359° |
| 2026-05-06 09:32 | 41.26866 | 28.74014 | 332 ft | 16 kts | 356° |
| 2026-05-06 09:32 | 41.26967 | 28.74049 | 331 ft | 15 kts | 62° |
| 2026-05-06 09:33 | 41.26966 | 28.74188 | 333 ft | 15 kts | 88° |
| 2026-05-06 09:33 | 41.26969 | 28.74322 | 333 ft | 14 kts | 89° |
| 2026-05-06 09:33 | 41.26971 | 28.74463 | 333 ft | 16 kts | 89° |
| 2026-05-06 09:33 | 41.26974 | 28.74624 | 329 ft | 18 kts | 88° |
| 2026-05-06 09:34 | 41.26978 | 28.74796 | 333 ft | 18 kts | 90° |
| 2026-05-06 09:34 | 41.26978 | 28.74963 | 333 ft | 18 kts | 89° |
| 2026-05-06 09:34 | 41.26980 | 28.75125 | 333 ft | 17 kts | 89° |
| 2026-05-06 09:34 | 41.26983 | 28.75281 | 333 ft | 17 kts | 88° |
| 2026-05-06 09:35 | 41.26967 | 28.75360 | 332 ft | 8 kts | 142° |
| 2026-05-06 09:35 | 41.26903 | 28.75376 | 332 ft | 11 kts | 177° |
| 2026-05-06 09:35 | 41.26825 | 28.75380 | 332 ft | 11 kts | 179° |
| 2026-05-06 09:35 | 41.26749 | 28.75380 | 331 ft | 11 kts | 180° |
| 2026-05-06 09:36 | 41.26675 | 28.75381 | 332 ft | 11 kts | 177° |
| 2026-05-06 09:36 | 41.26601 | 28.75385 | 329 ft | 11 kts | 177° |
| 2026-05-06 09:36 | 41.26523 | 28.75387 | 329 ft | 12 kts | 179° |
| 2026-05-06 09:36 | 41.26442 | 28.75388 | 333 ft | 12 kts | 180° |
| 2026-05-06 09:37 | 41.26363 | 28.75393 | 331 ft | 11 kts | 161° |
| 2026-05-06 09:37 | 41.26335 | 28.75480 | 333 ft | 11 kts | 92° |
| 2026-05-06 09:37 | 41.26334 | 28.75580 | 333 ft | 11 kts | 89° |
| 2026-05-06 09:37 | 41.26361 | 28.75660 | 332 ft | 10 kts | 18° |
| 2026-05-06 09:38 | 41.26434 | 28.75664 | 331 ft | 12 kts | 358° |
| 2026-05-06 09:38 | 41.26633 | 28.75661 | 331 ft | 60 kts | 360° |
| 2026-05-06 09:38 | 41.27284 | 28.75648 | 333 ft | 125 kts | 359° |
| 2026-05-06 09:38 | 41.28321 | 28.75644 | 481 ft | 163 kts | 2° |
| 2026-05-06 09:39 | 41.29494 | 28.75644 | 1072 ft | 177 kts | 4° |
| 2026-05-06 09:39 | 41.30680 | 28.76143 | 1595 ft | 197 kts | 39° |
| 2026-05-06 09:39 | 41.31759 | 28.77394 | 2072 ft | 207 kts | 34° |
| 2026-05-06 09:39 | 41.33044 | 28.78472 | 2313 ft | 229 kts | 31° |
| 2026-05-06 09:40 | 41.34461 | 28.79589 | 2637 ft | 248 kts | 30° |
| 2026-05-06 09:40 | 41.36002 | 28.80767 | 3164 ft | 260 kts | 29° |
| 2026-05-06 09:40 | 41.38277 | 28.84319 | 4898 ft | 266 kts | 74° |
| 2026-05-06 09:41 | 41.38447 | 28.86803 | 5679 ft | 272 kts | 86° |
| 2026-05-06 09:41 | 41.38457 | 28.89327 | 6493 ft | 274 kts | 88° |
| 2026-05-06 09:41 | 41.38071 | 28.91827 | 7189 ft | 284 kts | 114° |
| 2026-05-06 09:41 | 41.36792 | 28.93846 | 7914 ft | 292 kts | 144° |
| 2026-05-06 09:42 | 41.34890 | 28.94804 | 8610 ft | 298 kts | 174° |
| 2026-05-06 09:42 | 41.32806 | 28.94869 | 9344 ft | 301 kts | 180° |
| 2026-05-06 09:42 | 41.30691 | 28.94850 | 10040 ft | 306 kts | 180° |
| 2026-05-06 09:42 | 41.28517 | 28.94850 | 10397 ft | 323 kts | 180° |
| 2026-05-06 09:43 | 41.26188 | 28.94871 | 10567 ft | 345 kts | 179° |
| 2026-05-06 09:43 | 41.23711 | 28.94828 | 10725 ft | 367 kts | 183° |
| 2026-05-06 09:43 | 41.21103 | 28.94598 | 10987 ft | 382 kts | 185° |
| 2026-05-06 09:43 | 41.18430 | 28.94308 | 11536 ft | 388 kts | 185° |
| 2026-05-06 09:44 | 41.15735 | 28.94018 | 12221 ft | 390 kts | 185° |
| 2026-05-06 09:44 | 41.13019 | 28.93742 | 12873 ft | 394 kts | 185° |
| 2026-05-06 09:44 | 41.10271 | 28.93474 | 13524 ft | 398 kts | 185° |
| 2026-05-06 09:44 | 41.07494 | 28.93214 | 14161 ft | 402 kts | 184° |
| 2026-05-06 09:45 | 41.04691 | 28.92954 | 14779 ft | 406 kts | 184° |
| 2026-05-06 09:45 | 41.01865 | 28.92691 | 15433 ft | 409 kts | 185° |
| 2026-05-06 09:45 | 40.99057 | 28.92375 | 16060 ft | 412 kts | 186° |
| 2026-05-06 09:45 | 40.96189 | 28.92002 | 16675 ft | 416 kts | 186° |
| 2026-05-06 09:46 | 40.93297 | 28.91619 | 17277 ft | 420 kts | 186° |
| 2026-05-06 09:46 | 40.90376 | 28.91243 | 17878 ft | 424 kts | 186° |
| 2026-05-06 09:46 | 40.87427 | 28.90880 | 18460 ft | 427 kts | 185° |
| 2026-05-06 09:46 | 40.84441 | 28.90844 | 18976 ft | 431 kts | 178° |
| 2026-05-06 09:47 | 40.81438 | 28.91106 | 19538 ft | 433 kts | 175° |
| 2026-05-06 09:47 | 40.78422 | 28.91450 | 20047 ft | 437 kts | 175° |
| 2026-05-06 09:47 | 40.75386 | 28.91786 | 20557 ft | 439 kts | 176° |
| 2026-05-06 09:47 | 40.72331 | 28.92086 | 21080 ft | 442 kts | 176° |
| 2026-05-06 09:48 | 40.69259 | 28.92355 | 21584 ft | 444 kts | 177° |
| 2026-05-06 09:48 | 40.66162 | 28.92606 | 22083 ft | 447 kts | 177° |
| 2026-05-06 09:48 | 40.63053 | 28.92851 | 22562 ft | 449 kts | 177° |
| 2026-05-06 09:48 | 40.59925 | 28.93099 | 23021 ft | 452 kts | 178° |
| 2026-05-06 09:49 | 40.56779 | 28.93401 | 23483 ft | 455 kts | 173° |
| 2026-05-06 09:49 | 40.53741 | 28.94607 | 23853 ft | 460 kts | 153° |
| 2026-05-06 09:49 | 40.51017 | 28.96809 | 24310 ft | 459 kts | 146° |
| 2026-05-06 09:49 | 40.48358 | 28.99141 | 24758 ft | 460 kts | 146° |
| 2026-05-06 09:50 | 40.45694 | 29.01488 | 25076 ft | 464 kts | 146° |
| 2026-05-06 09:50 | 40.42997 | 29.03842 | 25381 ft | 467 kts | 146° |
| 2026-05-06 09:50 | 40.40276 | 29.06191 | 25721 ft | 469 kts | 147° |
| 2026-05-06 09:50 | 40.37533 | 29.08535 | 26062 ft | 472 kts | 147° |
| 2026-05-06 09:51 | 40.34771 | 29.10883 | 26382 ft | 474 kts | 147° |
| 2026-05-06 09:51 | 40.31998 | 29.13233 | 26699 ft | 477 kts | 147° |
| 2026-05-06 09:51 | 40.29202 | 29.15601 | 27018 ft | 479 kts | 147° |
| 2026-05-06 09:51 | 40.26400 | 29.17974 | 27326 ft | 481 kts | 147° |
| 2026-05-06 09:52 | 40.23582 | 29.20360 | 27631 ft | 483 kts | 147° |
| 2026-05-06 09:52 | 40.20751 | 29.22753 | 27928 ft | 486 kts | 147° |
| 2026-05-06 09:52 | 40.17873 | 29.25067 | 28224 ft | 487 kts | 154° |
| 2026-05-06 09:52 | 40.14752 | 29.26743 | 28803 ft | 482 kts | 161° |
| 2026-05-06 09:53 | 40.11596 | 29.28149 | 29383 ft | 478 kts | 162° |
| 2026-05-06 09:53 | 40.08442 | 29.29520 | 29766 ft | 478 kts | 162° |
| 2026-05-06 09:53 | 40.05285 | 29.30928 | 30074 ft | 480 kts | 161° |
| 2026-05-06 09:53 | 40.02178 | 29.32360 | 30395 ft | 480 kts | 161° |
| 2026-05-06 09:54 | 39.99043 | 29.33839 | 30737 ft | 479 kts | 160° |
| 2026-05-06 09:54 | 39.95911 | 29.35330 | 31045 ft | 479 kts | 160° |
| 2026-05-06 09:54 | 39.89611 | 29.38334 | 31095 ft | 483 kts | 159° |
| 2026-05-06 09:55 | 39.83437 | 29.41688 | 31093 ft | 478 kts | 157° |
| 2026-05-06 09:55 | 39.77316 | 29.45141 | 31166 ft | 483 kts | 157° |
| 2026-05-06 09:56 | 39.74214 | 29.46862 | 31353 ft | 486 kts | 158° |
| 2026-05-06 09:56 | 39.71104 | 29.48570 | 31681 ft | 485 kts | 158° |
| 2026-05-06 09:56 | 39.68002 | 29.50267 | 32030 ft | 483 kts | 158° |
| 2026-05-06 09:56 | 39.64893 | 29.51965 | 32249 ft | 485 kts | 158° |
| 2026-05-06 09:57 | 39.61762 | 29.53640 | 32444 ft | 487 kts | 159° |
| 2026-05-06 09:57 | 39.58614 | 29.55237 | 32853 ft | 483 kts | 160° |
| 2026-05-06 09:57 | 39.55502 | 29.56777 | 33393 ft | 474 kts | 160° |
| 2026-05-06 09:57 | 39.52443 | 29.58280 | 33940 ft | 467 kts | 160° |
| 2026-05-06 09:58 | 39.49422 | 29.59767 | 34438 ft | 461 kts | 160° |
| 2026-05-06 09:58 | 39.46447 | 29.61238 | 34918 ft | 455 kts | 160° |
| 2026-05-06 09:58 | 39.43517 | 29.62692 | 35398 ft | 448 kts | 160° |
| 2026-05-06 09:58 | 39.40624 | 29.64131 | 35893 ft | 441 kts | 160° |
| 2026-05-06 09:59 | 39.37773 | 29.65551 | 36263 ft | 438 kts | 160° |
| 2026-05-06 09:59 | 39.34930 | 29.66965 | 36525 ft | 438 kts | 161° |
| 2026-05-06 09:59 | 39.32092 | 29.68376 | 36767 ft | 437 kts | 161° |
| 2026-05-06 09:59 | 39.29247 | 29.69789 | 36924 ft | 439 kts | 161° |
| 2026-05-06 10:00 | 39.26392 | 29.71205 | 37052 ft | 440 kts | 161° |
| 2026-05-06 10:00 | 39.23523 | 29.72627 | 37104 ft | 443 kts | 161° |
| 2026-05-06 10:00 | 39.17708 | 29.75504 | 37114 ft | 452 kts | 161° |
| 2026-05-06 10:01 | 39.11780 | 29.78434 | 37116 ft | 460 kts | 161° |
| 2026-05-06 10:01 | 39.05743 | 29.81412 | 37114 ft | 469 kts | 161° |
| 2026-05-06 10:02 | 38.99645 | 29.84416 | 37110 ft | 476 kts | 161° |
| 2026-05-06 10:02 | 38.93408 | 29.87483 | 37101 ft | 483 kts | 161° |
| 2026-05-06 10:03 | 38.87091 | 29.90575 | 37104 ft | 488 kts | 161° |
| 2026-05-06 10:03 | 38.80712 | 29.93612 | 37108 ft | 490 kts | 161° |
| 2026-05-06 10:04 | 38.74309 | 29.96636 | 37101 ft | 491 kts | 161° |
| 2026-05-06 10:04 | 38.67881 | 29.99677 | 36589 ft | 495 kts | 161° |
| 2026-05-06 10:05 | 38.64678 | 30.01194 | 36090 ft | 489 kts | 161° |
| 2026-05-06 10:05 | 38.61478 | 30.02708 | 35379 ft | 491 kts | 161° |
| 2026-05-06 10:05 | 38.58277 | 30.04222 | 34741 ft | 491 kts | 161° |
| 2026-05-06 10:05 | 38.55078 | 30.05733 | 34100 ft | 490 kts | 161° |
| 2026-05-06 10:06 | 38.52953 | 30.06736 | 33513 ft | 492 kts | 161° |
| 2026-05-06 10:06 | 38.48702 | 30.08740 | 32542 ft | 492 kts | 161° |
| 2026-05-06 10:06 | 38.45496 | 30.10250 | 31807 ft | 491 kts | 161° |
| 2026-05-06 10:06 | 38.42290 | 30.11758 | 31075 ft | 490 kts | 161° |
| 2026-05-06 10:07 | 38.39097 | 30.13259 | 30318 ft | 489 kts | 161° |
| 2026-05-06 10:07 | 38.35909 | 30.14756 | 29417 ft | 487 kts | 161° |
| 2026-05-06 10:07 | 38.32728 | 30.16245 | 28561 ft | 485 kts | 161° |
| 2026-05-06 10:07 | 38.30630 | 30.17207 | 27997 ft | 484 kts | 161° |
| 2026-05-06 10:08 | 38.27428 | 30.18658 | 27366 ft | 478 kts | 162° |
| 2026-05-06 10:08 | 38.24356 | 30.20049 | 26727 ft | 473 kts | 161° |
| 2026-05-06 10:08 | 38.21275 | 30.21458 | 26327 ft | 464 kts | 161° |
| 2026-05-06 10:08 | 38.18293 | 30.22832 | 26182 ft | 449 kts | 161° |
| 2026-05-06 10:09 | 38.15399 | 30.24167 | 25976 ft | 437 kts | 161° |
| 2026-05-06 10:09 | 38.12577 | 30.25467 | 25787 ft | 425 kts | 161° |
| 2026-05-06 10:09 | 38.09830 | 30.26729 | 25609 ft | 415 kts | 161° |
| 2026-05-06 10:09 | 38.07152 | 30.27958 | 25442 ft | 404 kts | 161° |
| 2026-05-06 10:10 | 38.04537 | 30.29156 | 25264 ft | 395 kts | 161° |
| 2026-05-06 10:10 | 38.01990 | 30.30352 | 25102 ft | 387 kts | 157° |
| 2026-05-06 10:10 | 37.99747 | 30.32157 | 24979 ft | 378 kts | 141° |
| 2026-05-06 10:10 | 37.97732 | 30.34232 | 24868 ft | 370 kts | 141° |
| 2026-05-06 10:11 | 37.95736 | 30.36271 | 24775 ft | 369 kts | 142° |
| 2026-05-06 10:11 | 37.93709 | 30.38311 | 24675 ft | 376 kts | 142° |
| 2026-05-06 10:11 | 37.91633 | 30.40374 | 24550 ft | 381 kts | 142° |
| 2026-05-06 10:11 | 37.89543 | 30.42440 | 24417 ft | 380 kts | 143° |
| 2026-05-06 10:12 | 37.87394 | 30.44326 | 24263 ft | 377 kts | 156° |
| 2026-05-06 10:12 | 37.84905 | 30.45179 | 24156 ft | 369 kts | 179° |
| 2026-05-06 10:12 | 37.82381 | 30.44919 | 24053 ft | 362 kts | 197° |
| 2026-05-06 10:12 | 37.80069 | 30.43768 | 23926 ft | 355 kts | 214° |
| 2026-05-06 10:13 | 37.78015 | 30.42048 | 23831 ft | 354 kts | 218° |
| 2026-05-06 10:13 | 37.76000 | 30.40267 | 23688 ft | 354 kts | 218° |
| 2026-05-06 10:13 | 37.73968 | 30.38494 | 23555 ft | 355 kts | 217° |
| 2026-05-06 10:13 | 37.71923 | 30.36736 | 23429 ft | 356 kts | 217° |
| 2026-05-06 10:14 | 37.69874 | 30.34988 | 23301 ft | 356 kts | 217° |
| 2026-05-06 10:14 | 37.67819 | 30.33240 | 23177 ft | 356 kts | 217° |
| 2026-05-06 10:14 | 37.65764 | 30.31493 | 23058 ft | 356 kts | 217° |
| 2026-05-06 10:14 | 37.63713 | 30.29751 | 22924 ft | 356 kts | 217° |
| 2026-05-06 10:15 | 37.61636 | 30.28043 | 22808 ft | 357 kts | 211° |
| 2026-05-06 10:15 | 37.59256 | 30.27104 | 22693 ft | 362 kts | 190° |
| 2026-05-06 10:15 | 37.56759 | 30.26755 | 22596 ft | 362 kts | 188° |
| 2026-05-06 10:15 | 37.54248 | 30.26455 | 22462 ft | 362 kts | 188° |
| 2026-05-06 10:16 | 37.51772 | 30.26152 | 22325 ft | 362 kts | 188° |
| 2026-05-06 10:16 | 37.49265 | 30.25825 | 22215 ft | 362 kts | 189° |
| 2026-05-06 10:16 | 37.46765 | 30.25485 | 22090 ft | 362 kts | 189° |
| 2026-05-06 10:16 | 37.44266 | 30.25140 | 21942 ft | 361 kts | 189° |
| 2026-05-06 10:17 | 37.41775 | 30.24796 | 21839 ft | 360 kts | 189° |
| 2026-05-06 10:17 | 37.39286 | 30.24453 | 21721 ft | 359 kts | 189° |
| 2026-05-06 10:17 | 37.36804 | 30.24111 | 21595 ft | 358 kts | 189° |
| 2026-05-06 10:17 | 37.34329 | 30.23771 | 21479 ft | 357 kts | 189° |
| 2026-05-06 10:18 | 37.31863 | 30.23432 | 21364 ft | 356 kts | 189° |
| 2026-05-06 10:18 | 37.29404 | 30.23095 | 21226 ft | 355 kts | 189° |
| 2026-05-06 10:18 | 37.26948 | 30.22758 | 21126 ft | 354 kts | 189° |
| 2026-05-06 10:18 | 37.24501 | 30.22422 | 21006 ft | 354 kts | 189° |
| 2026-05-06 10:19 | 37.22054 | 30.22087 | 20872 ft | 353 kts | 189° |
| 2026-05-06 10:19 | 37.19614 | 30.21752 | 20768 ft | 353 kts | 189° |
| 2026-05-06 10:19 | 37.17187 | 30.21447 | 20656 ft | 353 kts | 184° |
| 2026-05-06 10:19 | 37.14753 | 30.21931 | 20510 ft | 359 kts | 159° |
| 2026-05-06 10:20 | 37.12658 | 30.23574 | 20407 ft | 355 kts | 135° |
| 2026-05-06 10:20 | 37.11225 | 30.26016 | 20288 ft | 344 kts | 114° |
| 2026-05-06 10:20 | 37.10540 | 30.28816 | 20152 ft | 331 kts | 96° |
| 2026-05-06 10:20 | 37.10367 | 30.31638 | 20043 ft | 319 kts | 80° |
| 2026-05-06 10:21 | 37.11042 | 30.34169 | 19966 ft | 300 kts | 53° |
| 2026-05-06 10:21 | 37.12373 | 30.36081 | 19878 ft | 287 kts | 34° |
| 2026-05-06 10:21 | 37.14031 | 30.37416 | 19794 ft | 284 kts | 20° |
| 2026-05-06 10:21 | 37.15909 | 30.38084 | 19719 ft | 284 kts | 5° |
| 2026-05-06 10:22 | 37.17878 | 30.38378 | 19646 ft | 284 kts | 2° |
| 2026-05-06 10:22 | 37.19832 | 30.38611 | 19497 ft | 281 kts | 2° |
| 2026-05-06 10:22 | 37.21777 | 30.38835 | 19157 ft | 282 kts | 2° |
| 2026-05-06 10:22 | 37.23741 | 30.39080 | 18810 ft | 284 kts | 2° |
| 2026-05-06 10:23 | 37.25703 | 30.39338 | 18544 ft | 283 kts | 2° |
| 2026-05-06 10:23 | 37.27654 | 30.39598 | 18280 ft | 281 kts | 2° |
| 2026-05-06 10:23 | 37.29592 | 30.39858 | 17986 ft | 279 kts | 3° |
| 2026-05-06 10:23 | 37.31516 | 30.40116 | 17706 ft | 277 kts | 3° |
| 2026-05-06 10:24 | 37.33427 | 30.40373 | 17424 ft | 275 kts | 3° |
| 2026-05-06 10:24 | 37.35302 | 30.40625 | 17151 ft | 274 kts | 3° |
| 2026-05-06 10:24 | 37.37193 | 30.40880 | 16885 ft | 273 kts | 3° |
| 2026-05-06 10:24 | 37.39074 | 30.41133 | 16604 ft | 271 kts | 3° |
| 2026-05-06 10:25 | 37.40945 | 30.41384 | 16314 ft | 270 kts | 3° |
| 2026-05-06 10:25 | 37.42809 | 30.41635 | 16026 ft | 269 kts | 3° |
| 2026-05-06 10:25 | 37.44667 | 30.41885 | 15767 ft | 267 kts | 3° |
| 2026-05-06 10:25 | 37.46507 | 30.42133 | 15479 ft | 266 kts | 4° |
| 2026-05-06 10:26 | 37.48343 | 30.42381 | 15207 ft | 264 kts | 4° |
| 2026-05-06 10:26 | 37.50165 | 30.42626 | 14924 ft | 262 kts | 4° |
| 2026-05-06 10:26 | 37.51978 | 30.42871 | 14660 ft | 262 kts | 4° |
| 2026-05-06 10:26 | 37.53783 | 30.43114 | 14430 ft | 260 kts | 4° |
| 2026-05-06 10:27 | 37.55579 | 30.43357 | 14177 ft | 259 kts | 4° |
| 2026-05-06 10:27 | 37.57310 | 30.43945 | 13881 ft | 262 kts | 28° |
| 2026-05-06 10:27 | 37.58645 | 30.45518 | 13529 ft | 269 kts | 55° |
| 2026-05-06 10:27 | 37.59312 | 30.47727 | 13208 ft | 274 kts | 80° |
| 2026-05-06 10:28 | 37.59277 | 30.50129 | 12938 ft | 275 kts | 93° |
| 2026-05-06 10:28 | 37.59066 | 30.52512 | 12686 ft | 273 kts | 94° |
| 2026-05-06 10:28 | 37.58858 | 30.54883 | 12415 ft | 272 kts | 91° |
| 2026-05-06 10:28 | 37.59140 | 30.57181 | 12104 ft | 264 kts | 61° |
| 2026-05-06 10:29 | 37.60084 | 30.59134 | 11875 ft | 259 kts | 53° |
| 2026-05-06 10:29 | 37.61120 | 30.61003 | 11585 ft | 260 kts | 52° |
| 2026-05-06 10:29 | 37.62160 | 30.62857 | 11327 ft | 259 kts | 53° |
| 2026-05-06 10:29 | 37.63191 | 30.64710 | 11143 ft | 258 kts | 53° |
| 2026-05-06 10:30 | 37.64217 | 30.66568 | 11059 ft | 259 kts | 53° |
| 2026-05-06 10:30 | 37.65243 | 30.68439 | 11049 ft | 259 kts | 53° |
| 2026-05-06 10:30 | 37.66260 | 30.70300 | 11027 ft | 257 kts | 53° |
| 2026-05-06 10:30 | 37.67263 | 30.72137 | 11018 ft | 252 kts | 53° |
| 2026-05-06 10:31 | 37.68169 | 30.73992 | 11001 ft | 247 kts | 69° |
| 2026-05-06 10:31 | 37.68352 | 30.76109 | 11053 ft | 243 kts | 91° |
| 2026-05-06 10:31 | 37.68206 | 30.78260 | 11052 ft | 248 kts | 94° |
| 2026-05-06 10:31 | 37.68024 | 30.80444 | 11048 ft | 252 kts | 94° |
| 2026-05-06 10:32 | 37.67846 | 30.82651 | 11028 ft | 253 kts | 94° |
| 2026-05-06 10:32 | 37.67639 | 30.84845 | 11016 ft | 252 kts | 103° |
| 2026-05-06 10:32 | 37.66810 | 30.86755 | 11025 ft | 250 kts | 136° |
| 2026-05-06 10:32 | 37.65334 | 30.87885 | 11032 ft | 252 kts | 163° |
| 2026-05-06 10:33 | 37.63609 | 30.88344 | 11043 ft | 256 kts | 171° |
| 2026-05-06 10:33 | 37.61841 | 30.88704 | 11026 ft | 257 kts | 171° |
| 2026-05-06 10:33 | 37.60082 | 30.89055 | 11017 ft | 255 kts | 171° |
| 2026-05-06 10:33 | 37.58333 | 30.89408 | 11017 ft | 254 kts | 171° |
| 2026-05-06 10:34 | 37.56598 | 30.89764 | 11017 ft | 252 kts | 171° |
| 2026-05-06 10:34 | 37.54868 | 30.90123 | 11014 ft | 252 kts | 171° |
| 2026-05-06 10:34 | 37.53140 | 30.90485 | 11006 ft | 252 kts | 171° |
| 2026-05-06 10:34 | 37.51398 | 30.90852 | 10933 ft | 257 kts | 171° |
| 2026-05-06 10:35 | 37.49625 | 30.91226 | 10757 ft | 260 kts | 171° |
| 2026-05-06 10:35 | 37.47866 | 30.91597 | 10604 ft | 259 kts | 171° |
| 2026-05-06 10:35 | 37.46071 | 30.91977 | 10424 ft | 259 kts | 172° |
| 2026-05-06 10:35 | 37.44279 | 30.92256 | 10275 ft | 260 kts | 185° |
| 2026-05-06 10:36 | 37.42526 | 30.91723 | 9878 ft | 266 kts | 200° |
| 2026-05-06 10:36 | 37.40778 | 30.90944 | 9419 ft | 266 kts | 200° |
| 2026-05-06 10:36 | 37.39033 | 30.90164 | 8980 ft | 267 kts | 200° |
| 2026-05-06 10:36 | 37.37271 | 30.89393 | 8555 ft | 269 kts | 200° |
| 2026-05-06 10:37 | 37.35526 | 30.88640 | 8143 ft | 268 kts | 200° |
| 2026-05-06 10:37 | 37.33762 | 30.87884 | 7747 ft | 268 kts | 199° |
| 2026-05-06 10:37 | 37.32000 | 30.87130 | 7327 ft | 266 kts | 200° |
| 2026-05-06 10:37 | 37.30255 | 30.86460 | 7070 ft | 258 kts | 192° |
| 2026-05-06 10:38 | 37.28470 | 30.86168 | 6668 ft | 257 kts | 186° |
| 2026-05-06 10:38 | 37.26700 | 30.85983 | 6333 ft | 253 kts | 186° |
| 2026-05-06 10:38 | 37.24962 | 30.85782 | 6008 ft | 248 kts | 186° |
| 2026-05-06 10:38 | 37.23258 | 30.85565 | 5684 ft | 244 kts | 187° |
| 2026-05-06 10:39 | 37.21584 | 30.85341 | 5378 ft | 239 kts | 187° |
| 2026-05-06 10:39 | 37.19957 | 30.85118 | 5134 ft | 232 kts | 187° |
| 2026-05-06 10:39 | 37.18373 | 30.84902 | 4831 ft | 229 kts | 187° |
| 2026-05-06 10:39 | 37.16805 | 30.84686 | 4510 ft | 223 kts | 187° |
| 2026-05-06 10:40 | 37.15289 | 30.84475 | 4207 ft | 215 kts | 187° |
| 2026-05-06 10:40 | 37.13827 | 30.84270 | 3956 ft | 207 kts | 187° |
| 2026-05-06 10:40 | 37.12385 | 30.84070 | 3813 ft | 210 kts | 187° |
| 2026-05-06 10:40 | 37.10914 | 30.83864 | 3648 ft | 215 kts | 186° |
| 2026-05-06 10:41 | 37.09435 | 30.83652 | 3827 ft | 215 kts | 187° |
| 2026-05-06 10:41 | 37.07982 | 30.83380 | 4429 ft | 206 kts | 189° |
| 2026-05-06 10:41 | 37.06455 | 30.83080 | 4190 ft | 229 kts | 193° |
| 2026-05-06 10:41 | 37.04906 | 30.82643 | 3968 ft | 223 kts | 193° |
| 2026-05-06 10:42 | 37.03434 | 30.82303 | 3877 ft | 205 kts | 188° |
| 2026-05-06 10:42 | 37.02047 | 30.82127 | 3518 ft | 200 kts | 178° |
| 2026-05-06 10:42 | 37.00646 | 30.82299 | 2986 ft | 202 kts | 173° |
| 2026-05-06 10:42 | 36.99288 | 30.82392 | 2687 ft | 189 kts | 182° |
| 2026-05-06 10:43 | 36.98066 | 30.82286 | 2545 ft | 168 kts | 186° |
| 2026-05-06 10:43 | 36.96933 | 30.82128 | 2238 ft | 160 kts | 186° |
| 2026-05-06 10:43 | 36.95837 | 30.81950 | 1813 ft | 155 kts | 188° |
| 2026-05-06 10:44 | 36.93831 | 30.81531 | 1043 ft | 141 kts | 186° |
| 2026-05-06 10:44 | 36.92884 | 30.81421 | 731 ft | 133 kts | 188° |
| 2026-05-06 10:44 | 36.91990 | 30.81267 | 410 ft | 127 kts | 187° |
| 2026-05-06 10:44 | 36.91137 | 30.81140 | 223 ft | 121 kts | 185° |
| 2026-05-06 10:45 | 36.90351 | 30.81036 | 194 ft | 99 kts | 186° |
| 2026-05-06 10:45 | 36.89816 | 30.80957 | 202 ft | 61 kts | 185° |
| 2026-05-06 10:45 | 36.89564 | 30.80928 | 200 ft | 28 kts | 185° |
| 2026-05-06 10:45 | 36.89382 | 30.80877 | 185 ft | 26 kts | 200° |
| 2026-05-06 10:46 | 36.89295 | 30.80834 | 186 ft | 0 kts | 208° |
| 2026-05-06 10:49 | 36.89294 | 30.80834 | 186 ft | 0 kts | 208° |
| 2026-05-06 10:49 | 36.89270 | 30.80815 | 191 ft | 7 kts | 213° |
| 2026-05-06 10:49 | 36.89217 | 30.80770 | 189 ft | 11 kts | 216° |
| 2026-05-06 10:49 | 36.89157 | 30.80697 | 195 ft | 13 kts | 251° |
| 2026-05-06 10:50 | 36.89217 | 30.80642 | 192 ft | 13 kts | 6° |
| 2026-05-06 10:50 | 36.89304 | 30.80653 | 202 ft | 12 kts | 6° |
| 2026-05-06 10:50 | 36.89310 | 30.80654 | 199 ft | 0 kts | 6° |
| 2026-05-06 10:52 | 36.89311 | 30.80654 | 198 ft | 1 kts | 6° |
| 2026-05-06 10:52 | 36.89346 | 30.80661 | 191 ft | 8 kts | 9° |
| 2026-05-06 10:53 | 36.89407 | 30.80669 | 191 ft | 10 kts | 5° |
| 2026-05-06 10:53 | 36.89486 | 30.80679 | 191 ft | 13 kts | 6° |
| 2026-05-06 10:53 | 36.89562 | 30.80626 | 191 ft | 15 kts | 281° |
| 2026-05-06 10:53 | 36.89574 | 30.80488 | 191 ft | 16 kts | 275° |
| 2026-05-06 10:54 | 36.89585 | 30.80367 | 191 ft | 8 kts | 276° |
| 2026-05-06 10:54 | 36.89610 | 30.80311 | 198 ft | 8 kts | 330° |
| 2026-05-06 10:54 | 36.89658 | 30.80284 | 191 ft | 8 kts | 318° |
| 2026-05-06 10:54 | 36.89694 | 30.80241 | 191 ft | 6 kts | 316° |
| 2026-05-06 10:55 | 36.89696 | 30.80238 | 191 ft | 0 kts | 316° |
| 2026-05-06 10:55 | 36.89697 | 30.80238 | 191 ft | 0 kts | 319° |
| 2026-05-06 10:55 | 36.89704 | 30.80228 | 191 ft | 2 kts | 314° |
| 2026-05-06 10:55 | 36.89706 | 30.80226 | 191 ft | 0 kts | 314° |
| 2026-05-06 10:56 | 36.89708 | 30.80224 | 191 ft | 0 kts | 314° |